Time;durP1;ratioP1;P1;durP2;ratioP2;P2;SDS_P1;SDS_P2;PMS_P1;PMS_P2;Temp;Humidity;BMP_temperature;BMP_pressure;BME280_temperature;BME280_humidity;BME280_pressure;Samples;Min_cycle;Max_cycle;Signal;HPM_P1;HPM_P2
2021/08/23 00:00:08;;;;;;;16.30;13.13;;;16.20;99.60;;;;;;5031962;28;20045;-69
2021/08/23 00:02:34;;;;;;;20.10;13.90;;;16.20;99.60;;;;;;5029934;28;20077;-68
2021/08/23 00:05:01;;;;;;;19.43;13.67;;;16.30;99.60;;;;;;5031540;28;20053;-68
2021/08/23 00:07:27;;;;;;;18.13;13.20;;;16.20;99.50;;;;;;5031154;28;20152;-68
2021/08/23 00:09:52;;;;;;;15.83;11.80;;;16.30;99.60;;;;;;5031494;28;20519;-68
2021/08/23 00:12:18;;;;;;;17.47;13.03;;;16.30;99.50;;;;;;5031630;28;20049;-68
2021/08/23 00:14:44;;;;;;;17.70;13.00;;;16.30;99.50;;;;;;5030787;28;20137;-68
2021/08/23 00:17:09;;;;;;;19.03;13.57;;;16.30;99.50;;;;;;5031624;28;20143;-68
2021/08/23 00:19:35;;;;;;;19.03;13.70;;;16.30;99.40;;;;;;5031473;28;20503;-68
2021/08/23 00:22:21;;;;;;;19.40;12.77;;;16.30;99.40;;;;;;5030588;28;20045;-68
2021/08/23 00:24:50;;;;;;;17.77;12.50;;;16.30;99.40;;;;;;5031179;28;20506;-68
2021/08/23 00:27:17;;;;;;;16.40;12.70;;;16.40;99.30;;;;;;5031695;28;20518;-68
2021/08/23 00:29:44;;;;;;;14.83;11.83;;;16.40;99.30;;;;;;5030513;28;20561;-68
2021/08/23 00:32:10;;;;;;;16.30;12.67;;;16.40;99.30;;;;;;5032271;28;20077;-68
2021/08/23 00:34:37;;;;;;;17.93;12.33;;;16.40;99.20;;;;;;5035366;28;20053;-67
2021/08/23 00:37:04;;;;;;;16.07;11.93;;;16.40;99.20;;;;;;5034400;28;20053;-68
2021/08/23 00:39:30;;;;;;;17.00;12.57;;;16.40;99.20;;;;;;5035154;28;20068;-68
2021/08/23 00:41:56;;;;;;;18.07;12.40;;;16.40;99.20;;;;;;5035042;28;20478;-68
2021/08/23 00:44:22;;;;;;;17.90;12.33;;;16.40;99.20;;;;;;5034682;28;20041;-68
2021/08/23 00:46:47;;;;;;;16.00;12.03;;;16.40;99.10;;;;;;5034730;28;20486;-68
2021/08/23 00:49:13;;;;;;;17.00;11.60;;;16.40;99.10;;;;;;5035054;28;20091;-67
2021/08/23 00:51:39;;;;;;;19.50;12.10;;;16.40;99.10;;;;;;5033928;28;20091;-67
2021/08/23 00:54:06;;;;;;;16.23;12.17;;;16.40;99.10;;;;;;5035488;28;20073;-68
2021/08/23 00:56:32;;;;;;;15.30;11.47;;;16.40;99.00;;;;;;5034299;28;20046;-68
2021/08/23 00:58:57;;;;;;;15.60;11.03;;;16.40;99.00;;;;;;5034575;28;20045;-68
2021/08/23 01:01:23;;;;;;;14.00;11.37;;;16.40;99.00;;;;;;5034795;28;20085;-68
2021/08/23 01:03:56;;;;;;;13.70;10.67;;;16.40;99.00;;;;;;5033706;28;20049;-68
2021/08/23 01:06:24;;;;;;;12.07;10.33;;;16.40;99.00;;;;;;5034693;28;20065;-68
2021/08/23 01:08:57;;;;;;;18.27;10.30;;;16.40;99.00;;;;;;5034622;28;20449;-68
2021/08/23 01:11:26;;;;;;;15.20;10.50;;;16.40;99.00;;;;;;5034120;28;20062;-67
2021/08/23 01:13:52;;;;;;;14.87;10.87;;;16.40;99.00;;;;;;5034266;28;20462;-68
2021/08/23 01:16:18;;;;;;;17.30;10.90;;;16.40;99.00;;;;;;5034552;28;20054;-68
2021/08/23 01:18:45;;;;;;;15.77;10.90;;;16.40;99.00;;;;;;5033441;28;20045;-68
2021/08/23 01:21:21;;;;;;;16.73;11.47;;;16.40;98.90;;;;;;5034458;28;20061;-68
2021/08/23 01:23:48;;;;;;;13.60;10.77;;;16.40;99.00;;;;;;5034497;28;20096;-68
2021/08/23 01:26:18;;;;;;;13.87;9.77;;;16.40;99.00;;;;;;5033808;28;20084;-68
2021/08/23 01:29:22;;;;;;;13.40;9.30;;;16.40;99.00;;;;;;5034293;28;20111;-68
2021/08/23 01:31:53;;;;;;;13.30;9.03;;;16.40;99.00;;;;;;5010565;28;20056;-67
2021/08/23 01:34:20;;;;;;;12.27;8.60;;;16.50;98.90;;;;;;5034511;28;20068;-67
2021/08/23 01:36:46;;;;;;;15.80;8.87;;;16.40;98.80;;;;;;5033738;28;20487;-67
2021/08/23 01:39:12;;;;;;;13.30;8.20;;;16.50;98.90;;;;;;5033552;28;20048;-67
2021/08/23 01:41:38;;;;;;;11.63;7.57;;;16.50;98.90;;;;;;5034048;28;20449;-67
2021/08/23 01:44:03;;;;;;;18.17;8.43;;;16.50;98.90;;;;;;5032770;28;20054;-67
2021/08/23 01:46:30;;;;;;;12.67;7.90;;;16.40;98.80;;;;;;5033678;28;20381;-67
2021/08/23 01:49:01;;;;;;;11.47;8.53;;;16.40;98.70;;;;;;5033846;28;20070;-68
2021/08/23 01:51:29;;;;;;;13.00;7.63;;;16.40;98.60;;;;;;5034011;28;20049;-67
2021/08/23 01:53:55;;;;;;;10.40;7.30;;;16.40;98.60;;;;;;5032951;28;20443;-67
2021/08/23 01:56:26;;;;;;;11.30;7.17;;;16.30;98.60;;;;;;5033715;28;20045;-67
2021/08/23 01:58:52;;;;;;;11.70;7.72;;;16.30;98.60;;;;;;5033821;28;20060;-67
2021/08/23 02:01:17;;;;;;;12.40;8.00;;;16.30;98.60;;;;;;5033294;28;20123;-68
2021/08/23 02:03:43;;;;;;;10.83;7.23;;;16.30;98.60;;;;;;5033459;28;20491;-68
2021/08/23 02:06:09;;;;;;;10.17;6.23;;;16.30;98.60;;;;;;5033881;28;20050;-67
2021/08/23 02:08:35;;;;;;;10.60;6.13;;;16.20;98.60;;;;;;5032990;28;20087;-67
2021/08/23 02:11:02;;;;;;;13.03;6.60;;;16.20;98.60;;;;;;5033330;28;20041;-68
2021/08/23 02:13:27;;;;;;;13.13;6.40;;;16.20;98.50;;;;;;5033650;28;20057;-67
2021/08/23 02:15:53;;;;;;;11.40;6.33;;;16.20;98.60;;;;;;5032476;28;20502;-68
2021/08/23 02:18:19;;;;;;;11.60;6.90;;;16.20;98.60;;;;;;5033208;28;20057;-68
2021/08/23 02:20:45;;;;;;;12.00;5.93;;;16.20;98.60;;;;;;5033183;28;20132;-67
2021/08/23 02:23:11;;;;;;;10.17;5.50;;;16.20;98.60;;;;;;5032648;28;20049;-67
2021/08/23 02:25:37;;;;;;;9.07;5.80;;;16.30;98.60;;;;;;5033310;28;20128;-67
2021/08/23 02:28:03;;;;;;;9.63;5.60;;;16.20;98.50;;;;;;5032406;28;20463;-67
2021/08/23 02:30:29;;;;;;;10.27;6.00;;;16.30;98.50;;;;;;5033219;28;20509;-68
2021/08/23 02:32:55;;;;;;;11.27;6.07;;;16.30;98.50;;;;;;5032866;28;20077;-67
2021/08/23 02:35:22;;;;;;;15.20;5.83;;;16.30;98.50;;;;;;5032579;28;20053;-68
2021/08/23 02:37:47;;;;;;;7.87;5.20;;;16.30;98.50;;;;;;5032679;28;20156;-68
2021/08/23 02:40:13;;;;;;;10.67;5.60;;;16.30;98.50;;;;;;5032922;28;20065;-68
2021/08/23 02:42:39;;;;;;;8.53;5.63;;;16.30;98.50;;;;;;5032060;28;20479;-67
2021/08/23 02:45:05;;;;;;;10.13;4.80;;;16.30;98.50;;;;;;5032875;28;20053;-67
2021/08/23 02:47:35;;;;;;;8.47;5.37;;;16.30;98.50;;;;;;5032959;28;20050;-68
2021/08/23 02:50:08;;;;;;;9.50;5.40;;;16.30;98.50;;;;;;5031860;28;20132;-68
2021/08/23 02:52:34;;;;;;;9.10;5.28;;;16.30;98.50;;;;;;5032779;28;20049;-68
2021/08/23 02:55:00;;;;;;;7.83;5.20;;;16.30;98.50;;;;;;5032201;28;20045;-67
2021/08/23 02:57:26;;;;;;;9.17;4.83;;;16.20;98.60;;;;;;5031980;28;20095;-67
2021/08/23 02:59:52;;;;;;;14.10;6.30;;;16.20;98.60;;;;;;5032718;28;20053;-67
2021/08/23 03:02:18;;;;;;;8.20;5.50;;;16.20;98.60;;;;;;5032785;28;20046;-67
2021/08/23 03:04:43;;;;;;;8.07;5.43;;;16.20;98.70;;;;;;5031638;28;20234;-67
2021/08/23 03:07:09;;;;;;;12.90;5.53;;;16.20;98.70;;;;;;5032499;28;20053;-67
2021/08/23 03:09:35;;;;;;;11.87;5.53;;;16.20;98.70;;;;;;5032710;28;20455;-67
2021/08/23 03:12:00;;;;;;;6.87;4.93;;;16.20;98.70;;;;;;5031527;28;20053;-67
2021/08/23 03:14:26;;;;;;;9.23;5.67;;;16.10;98.70;;;;;;5032402;28;20060;-67
2021/08/23 03:16:52;;;;;;;11.33;6.10;;;16.10;98.70;;;;;;5032005;28;20084;-68
2021/08/23 03:19:18;;;;;;;10.07;5.77;;;16.20;98.70;;;;;;5031461;28;20073;-67
2021/08/23 03:21:43;;;;;;;7.80;5.80;;;16.10;98.70;;;;;;5039164;28;20432;-67
2021/08/23 03:24:11;;;;;;;11.33;6.00;;;16.10;98.80;;;;;;5040385;28;20113;-67
2021/08/23 03:26:37;;;;;;;9.87;6.60;;;16.10;98.80;;;;;;5041790;28;20045;-67
2021/08/23 03:29:03;;;;;;;13.57;6.83;;;16.10;98.90;;;;;;5031812;28;20508;-67
2021/08/23 03:31:30;;;;;;;13.93;6.67;;;16.10;99.00;;;;;;5031549;28;20144;-67
2021/08/23 03:33:55;;;;;;;16.93;8.43;;;16.10;99.10;;;;;;5031741;28;20470;-67
2021/08/23 03:36:21;;;;;;;13.93;7.83;;;16.20;99.10;;;;;;5031801;28;20057;-67
2021/08/23 03:38:48;;;;;;;12.90;7.73;;;16.10;99.10;;;;;;5031263;28;20060;-68
2021/08/23 03:41:15;;;;;;;12.87;7.40;;;16.20;99.10;;;;;;5032310;28;20073;-68
2021/08/23 03:43:40;;;;;;;10.83;7.33;;;16.20;99.10;;;;;;5031796;28;20057;-67
2021/08/23 03:46:06;;;;;;;14.07;7.27;;;16.20;99.10;;;;;;5031217;28;20601;-67
2021/08/23 03:48:31;;;;;;;14.53;7.27;;;16.20;99.50;;;;;;5031952;28;20050;-67
2021/08/23 03:50:57;;;;;;;14.70;8.00;;;16.20;99.10;;;;;;5031515;28;20121;-66
2021/08/23 03:53:23;;;;;;;14.30;7.07;;;16.10;99.10;;;;;;5031332;28;20055;-66
2021/08/23 03:55:49;;;;;;;10.77;7.20;;;16.10;99.10;;;;;;5031754;28;20132;-67
2021/08/23 03:58:14;;;;;;;12.40;7.27;;;16.10;99.10;;;;;;5031822;28;20046;-67
2021/08/23 04:00:40;;;;;;;16.97;7.23;;;16.10;99.10;;;;;;5030832;28;20046;-68
2021/08/23 04:03:06;;;;;;;12.73;7.63;;;16.10;99.10;;;;;;5031629;28;20068;-67
2021/08/23 04:05:31;;;;;;;12.50;7.10;;;16.10;99.10;;;;;;5031600;28;20486;-67
2021/08/23 04:07:57;;;;;;;10.50;7.00;;;16.10;99.20;;;;;;5032919;28;20049;-67
2021/08/23 04:10:23;;;;;;;14.40;7.60;;;16.10;99.10;;;;;;5036080;28;20419;-67
2021/08/23 04:12:49;;;;;;;11.67;7.50;;;16.10;99.10;;;;;;5035667;28;20057;-67
2021/08/23 04:15:14;;;;;;;11.60;7.37;;;16.10;99.10;;;;;;5035014;28;20190;-67
2021/08/23 04:17:40;;;;;;;12.67;7.40;;;16.10;99.10;;;;;;5035319;28;20053;-67
2021/08/23 04:20:06;;;;;;;10.47;6.43;;;16.10;99.00;;;;;;5035441;28;20450;-68
2021/08/23 04:22:32;;;;;;;10.67;6.87;;;16.10;99.00;;;;;;5035077;28;20049;-67
2021/08/23 04:24:58;;;;;;;16.23;7.40;;;16.10;99.00;;;;;;5035383;28;20646;-67
2021/08/23 04:27:23;;;;;;;10.07;6.10;;;16.10;99.00;;;;;;5035557;28;20102;-67
2021/08/23 04:29:49;;;;;;;11.50;6.53;;;16.10;99.00;;;;;;5034547;28;20045;-67
2021/08/23 04:32:15;;;;;;;10.43;6.03;;;16.10;99.00;;;;;;5035360;28;20057;-67
2021/08/23 04:34:41;;;;;;;9.77;5.40;;;16.00;99.00;;;;;;5034168;28;20046;-67
2021/08/23 04:37:06;;;;;;;12.07;6.10;;;16.00;99.00;;;;;;5035470;28;20216;-67
2021/08/23 04:39:33;;;;;;;11.27;6.07;;;16.00;99.00;;;;;;5035492;28;20132;-67
2021/08/23 04:42:00;;;;;;;9.90;6.40;;;16.00;99.00;;;;;;5034267;28;20074;-67
2021/08/23 04:44:25;;;;;;;14.07;6.50;;;16.00;99.10;;;;;;5035387;28;20045;-67
2021/08/23 04:46:51;;;;;;;15.00;6.30;;;16.00;99.10;;;;;;5034850;28;20052;-67
2021/08/23 04:49:17;;;;;;;11.10;6.17;;;16.00;99.10;;;;;;5034274;28;20049;-67
2021/08/23 04:51:43;;;;;;;12.87;5.67;;;16.00;99.10;;;;;;5034967;28;20466;-67
2021/08/23 04:54:09;;;;;;;13.97;6.40;;;16.00;99.20;;;;;;5035063;28;20405;-67
2021/08/23 04:56:35;;;;;;;10.43;5.80;;;15.90;99.20;;;;;;5034086;28;20049;-67
2021/08/23 04:59:01;;;;;;;9.13;5.30;;;15.90;99.30;;;;;;5034756;28;20080;-67
2021/08/23 05:01:27;;;;;;;13.33;5.63;;;16.00;99.30;;;;;;5034916;28;20408;-67
2021/08/23 05:03:52;;;;;;;9.37;6.03;;;16.00;99.40;;;;;;5033840;28;20053;-67
2021/08/23 05:06:18;;;;;;;11.13;6.20;;;15.90;99.40;;;;;;5034813;28;20052;-67
2021/08/23 05:08:44;;;;;;;10.57;6.17;;;15.90;99.40;;;;;;5034533;28;20049;-67
2021/08/23 05:11:11;;;;;;;13.67;6.47;;;15.90;99.40;;;;;;5033938;28;20053;-67
2021/08/23 05:13:36;;;;;;;8.87;5.20;;;15.90;99.40;;;;;;5034645;28;20127;-67
2021/08/23 05:16:02;;;;;;;12.70;5.77;;;15.90;99.50;;;;;;5034358;28;20499;-67
2021/08/23 05:18:28;;;;;;;10.33;5.53;;;15.90;99.40;;;;;;5033145;28;20100;-67
2021/08/23 05:20:54;;;;;;;14.70;5.60;;;15.90;99.40;;;;;;5034312;28;20380;-67
2021/08/23 05:23:19;;;;;;;9.83;5.10;;;15.90;99.40;;;;;;5034532;28;20045;-67
2021/08/23 05:25:45;;;;;;;15.23;5.40;;;15.90;99.40;;;;;;5033396;28;20053;-67
2021/08/23 05:28:11;;;;;;;13.17;5.37;;;15.90;99.40;;;;;;5034202;28;20049;-67
2021/08/23 05:30:37;;;;;;;9.23;5.07;;;15.90;99.70;;;;;;5034126;28;20048;-68
2021/08/23 05:33:03;;;;;;;8.47;5.30;;;15.90;99.30;;;;;;5033289;28;20045;-67
2021/08/23 05:35:29;;;;;;;11.77;5.23;;;15.90;99.30;;;;;;5034294;28;20436;-67
2021/08/23 05:37:54;;;;;;;9.73;5.30;;;15.90;99.30;;;;;;5033101;28;20053;-67
2021/08/23 05:40:23;;;;;;;10.67;5.47;;;15.90;99.30;;;;;;5034045;28;20495;-67
2021/08/23 05:42:50;;;;;;;9.70;5.50;;;15.90;99.30;;;;;;5033798;28;20064;-67
2021/08/23 05:45:16;;;;;;;10.73;5.43;;;15.90;99.30;;;;;;5033330;28;20088;-68
2021/08/23 05:47:42;;;;;;;8.67;5.30;;;15.90;99.30;;;;;;5033497;28;20061;-68
2021/08/23 05:50:08;;;;;;;10.33;5.60;;;15.90;99.70;;;;;;5033997;28;20136;-67
2021/08/23 05:52:33;;;;;;;12.50;5.43;;;16.00;99.30;;;;;;5033209;28;20049;-67
2021/08/23 05:54:59;;;;;;;14.33;6.23;;;16.00;99.30;;;;;;5033485;28;20053;-66
2021/08/23 05:57:27;;;;;;;12.10;5.00;;;16.00;99.30;;;;;;5033732;28;20064;-67
2021/08/23 05:59:53;;;;;;;10.07;5.23;;;16.00;99.30;;;;;;5032644;28;20045;-67
2021/08/23 06:02:18;;;;;;;14.87;5.97;;;16.00;99.30;;;;;;5033421;28;20127;-67
2021/08/23 06:04:44;;;;;;;12.30;5.27;;;16.10;99.40;;;;;;5033144;28;20050;-66
2021/08/23 06:07:10;;;;;;;9.47;5.30;;;16.10;99.40;;;;;;5032882;28;20049;-67
2021/08/23 06:09:35;;;;;;;10.70;5.77;;;16.10;99.40;;;;;;5033534;28;20132;-67
2021/08/23 06:12:01;;;;;;;10.60;5.43;;;16.20;99.50;;;;;;5033155;28;20057;-67
2021/08/23 06:14:27;;;;;;;10.53;5.13;;;16.20;99.50;;;;;;5032656;28;20045;-67
2021/08/23 06:16:53;;;;;;;12.53;4.97;;;16.30;99.50;;;;;;5032913;28;20092;-67
2021/08/23 06:19:18;;;;;;;12.37;6.73;;;16.30;99.50;;;;;;5033044;28;20383;-67
2021/08/23 06:21:44;;;;;;;8.43;5.00;;;16.40;99.50;;;;;;5032278;28;20185;-67
2021/08/23 06:24:10;;;;;;;10.43;4.90;;;16.40;99.40;;;;;;5033326;28;20049;-67
2021/08/23 06:26:36;;;;;;;14.00;4.60;;;16.50;99.40;;;;;;5032972;28;20053;-67
2021/08/23 06:29:01;;;;;;;11.63;4.63;;;16.50;99.30;;;;;;5032210;28;20053;-66
2021/08/23 06:31:27;;;;;;;9.33;4.10;;;16.60;99.30;;;;;;5032264;28;20064;-67
2021/08/23 06:33:53;;;;;;;7.13;4.03;;;16.60;99.20;;;;;;5032629;28;20045;-67
2021/08/23 06:36:18;;;;;;;9.37;5.07;;;16.70;99.20;;;;;;5032028;28;20057;-67
2021/08/23 06:38:44;;;;;;;7.70;3.73;;;16.70;99.10;;;;;;5032443;28;20056;-67
2021/08/23 06:41:18;;;;;;;10.43;4.60;;;16.70;99.00;;;;;;5032016;28;20045;-67
2021/08/23 06:43:45;;;;;;;9.63;4.20;;;16.70;99.00;;;;;;5032430;28;20435;-67
2021/08/23 06:46:10;;;;;;;10.30;3.97;;;16.70;98.90;;;;;;5032848;28;20068;-66
2021/08/23 06:48:36;;;;;;;7.07;4.00;;;16.80;98.80;;;;;;5032029;28;20490;-66
2021/08/23 06:51:02;;;;;;;10.87;4.07;;;16.80;98.80;;;;;;5032214;28;20087;-67
2021/08/23 06:53:27;;;;;;;7.67;3.00;;;16.80;98.80;;;;;;5032429;28;20050;-66
2021/08/23 06:55:53;;;;;;;9.50;3.90;;;16.90;98.60;;;;;;5031495;28;20049;-67
2021/08/23 06:58:25;;;;;;;9.33;2.97;;;17.00;98.40;;;;;;5032364;28;20156;-67
2021/08/23 07:00:50;;;;;;;7.57;2.93;;;17.00;98.20;;;;;;5032366;28;20542;-67
2021/08/23 07:03:16;;;;;;;6.33;3.00;;;17.10;98.20;;;;;;5031813;28;20060;-67
2021/08/23 07:05:41;;;;;;;6.97;2.80;;;17.10;98.10;;;;;;5032413;28;20136;-67
2021/08/23 07:08:07;;;;;;;12.03;3.00;;;17.20;97.90;;;;;;5032373;28;20553;-67
2021/08/23 07:10:33;;;;;;;6.90;2.57;;;17.20;97.80;;;;;;5033884;28;20045;-67
2021/08/23 07:13:00;;;;;;;6.93;2.80;;;17.20;97.70;;;;;;5041630;28;20509;-67
2021/08/23 07:15:26;;;;;;;7.33;2.80;;;17.30;97.70;;;;;;5040476;28;20061;-68
2021/08/23 07:17:52;;;;;;;9.33;3.30;;;17.30;97.60;;;;;;5044881;28;20130;-68
2021/08/23 07:20:18;;;;;;;8.03;3.23;;;17.30;97.40;;;;;;5040100;28;20453;-68
2021/08/23 07:22:43;;;;;;;7.10;2.77;;;17.40;97.30;;;;;;5041802;28;20465;-68
2021/08/23 07:25:10;;;;;;;6.87;2.90;;;17.40;97.20;;;;;;5040421;28;20132;-67
2021/08/23 07:27:36;;;;;;;10.93;3.50;;;17.40;97.10;;;;;;5040273;28;20053;-67
2021/08/23 07:30:03;;;;;;;8.40;3.07;;;17.50;96.80;;;;;;5042075;28;20470;-67
2021/08/23 07:32:29;;;;;;;8.40;2.93;;;17.50;96.60;;;;;;5040754;28;20038;-67
2021/08/23 07:34:55;;;;;;;6.17;2.90;;;17.50;96.40;;;;;;5045909;28;20102;-67
2021/08/23 07:37:20;;;;;;;6.23;2.90;;;17.60;96.40;;;;;;5051275;28;20083;-67
2021/08/23 07:39:46;;;;;;;4.47;2.40;;;17.50;96.20;;;;;;5051110;28;20533;-67
2021/08/23 07:42:13;;;;;;;7.27;3.10;;;17.60;96.10;;;;;;5051280;28;20044;-67
2021/08/23 07:44:39;;;;;;;5.53;2.73;;;17.50;96.00;;;;;;5051063;28;20079;-67
2021/08/23 07:47:05;;;;;;;8.00;3.33;;;17.50;95.80;;;;;;5051546;28;20056;-66
2021/08/23 07:49:35;;;;;;;6.13;3.00;;;17.50;95.60;;;;;;5042387;28;20053;-67
2021/08/23 07:52:01;;;;;;;8.93;3.13;;;17.50;95.80;;;;;;5050418;28;20045;-67
2021/08/23 07:54:27;;;;;;;7.07;2.90;;;17.50;95.40;;;;;;5051335;28;20110;-67
2021/08/23 07:56:52;;;;;;;9.10;2.90;;;17.50;95.40;;;;;;5045617;28;20041;-67
2021/08/23 07:59:18;;;;;;;5.57;2.40;;;17.60;95.40;;;;;;5039633;28;20095;-67
2021/08/23 08:01:44;;;;;;;5.20;2.73;;;17.60;95.50;;;;;;5038831;28;20041;-67
2021/08/23 08:04:11;;;;;;;8.13;2.93;;;17.60;95.40;;;;;;5048230;28;20170;-67
2021/08/23 08:06:37;;;;;;;5.53;2.60;;;17.60;95.30;;;;;;5050535;28;20048;-67
2021/08/23 08:09:02;;;;;;;9.33;3.03;;;17.70;95.30;;;;;;5051307;28;20049;-68
2021/08/23 08:11:29;;;;;;;8.00;3.00;;;17.80;95.20;;;;;;5051005;28;20056;-68
2021/08/23 08:13:55;;;;;;;6.97;1.93;;;17.90;95.10;;;;;;5050046;28;20076;-67
2021/08/23 08:16:24;;;;;;;3.53;1.90;;;18.00;94.80;;;;;;5051062;28;20049;-68
2021/08/23 08:18:49;;;;;;;4.63;2.43;;;18.00;94.40;;;;;;5050828;28;20206;-67
2021/08/23 08:21:15;;;;;;;4.50;2.23;;;18.10;94.70;;;;;;5050422;28;20045;-67
2021/08/23 08:23:41;;;;;;;5.07;2.27;;;18.20;94.60;;;;;;5050967;28;20049;-67
2021/08/23 08:26:06;;;;;;;7.40;2.20;;;18.50;94.50;;;;;;5050764;28;20460;-67
2021/08/23 08:28:36;;;;;;;4.97;2.27;;;18.60;93.90;;;;;;5050587;28;20052;-68
2021/08/23 08:31:01;;;;;;;5.23;2.00;;;18.80;93.40;;;;;;5050570;28;20045;-67
2021/08/23 08:33:27;;;;;;;3.73;2.20;;;18.90;93.00;;;;;;5051330;28;20156;-67
2021/08/23 08:35:58;;;;;;;3.93;1.90;;;19.00;92.90;;;;;;5050240;28;20053;-67
2021/08/23 08:38:25;;;;;;;5.78;2.00;;;19.10;92.70;;;;;;5050980;28;20124;-67
2021/08/23 08:40:51;;;;;;;4.83;1.67;;;19.30;92.50;;;;;;5050061;28;20103;-67
2021/08/23 08:43:16;;;;;;;6.93;2.20;;;19.40;91.60;;;;;;5039837;28;20140;-73
2021/08/23 08:45:44;;;;;;;8.13;1.80;;;19.30;90.60;;;;;;5046397;28;20127;-73
2021/08/23 08:48:10;;;;;;;7.07;2.00;;;19.30;90.10;;;;;;5046580;28;20152;-69
2021/08/23 08:50:35;;;;;;;4.97;2.10;;;19.20;89.70;;;;;;5047768;28;20045;-72
2021/08/23 08:53:06;;;;;;;5.17;1.83;;;19.20;89.70;;;;;;5047123;28;20182;-72
2021/08/23 08:55:36;;;;;;;3.67;1.38;;;19.40;87.50;;;;;;5038542;28;20053;-73
2021/08/23 08:58:06;;;;;;;3.63;1.70;;;19.50;84.70;;;;;;5045800;28;20048;-74
2021/08/23 09:00:36;;;;;;;3.33;1.60;;;19.70;83.50;;;;;;5051017;28;20064;-74
2021/08/23 09:03:02;;;;;;;5.47;1.77;;;20.00;83.50;;;;;;5050244;28;20498;-73
2021/08/23 09:05:43;;;;;;;4.65;1.63;;;20.30;84.40;;;;;;5050976;28;20041;-74
2021/08/23 09:08:09;;;;;;;4.63;1.52;;;20.30;81.90;;;;;;5031855;28;20478;-70
2021/08/23 09:10:40;;;;;;;2.38;1.23;;;20.20;83.20;;;;;;5030095;28;20485;-70
2021/08/23 09:13:10;;;;;;;;;;;20.10;80.90;;;;;;5031581;28;20494;-70
2021/08/23 09:15:57;;;;;;;3.67;1.33;;;19.90;80.60;;;;;;5029389;28;19921;-70
2021/08/23 09:18:32;;;;;;;4.32;1.50;;;19.70;81.60;;;;;;5030725;28;20045;-71
2021/08/23 09:21:05;;;;;;;3.28;1.27;;;19.60;81.10;;;;;;5030254;28;20576;-70
2021/08/23 09:23:40;;;;;;;4.00;1.40;;;19.60;80.00;;;;;;5029378;28;20180;-70
2021/08/23 09:26:16;;;;;;;5.25;1.38;;;19.60;79.80;;;;;;5031028;28;20387;-70
2021/08/23 09:29:04;;;;;;;3.47;1.33;;;19.60;80.30;;;;;;5029626;28;20041;-70
2021/08/23 09:31:37;;;;;;;4.55;1.17;;;19.70;80.70;;;;;;5029788;28;20418;-69
2021/08/23 09:34:06;;;;;;;5.63;2.13;;;19.70;80.00;;;;;;5030279;28;20049;-70
2021/08/23 09:36:32;;;;;;;2.60;1.50;;;19.80;80.10;;;;;;5030758;28;20068;-70
2021/08/23 09:39:08;;;;;;;4.43;1.35;;;19.90;80.10;;;;;;5029358;28;20140;-69
2021/08/23 09:41:40;;;;;;;3.78;1.40;;;19.90;79.40;;;;;;5030368;28;20392;-69
2021/08/23 09:44:09;;;;;;;2.67;1.10;;;20.00;77.20;;;;;;5029097;28;20064;-69
2021/08/23 09:46:36;;;;;;;3.78;1.65;;;20.00;75.80;;;;;;5030401;28;20510;-69
2021/08/23 09:49:07;;;;;;;4.78;1.58;;;20.00;75.60;;;;;;5029673;28;20140;-68
2021/08/23 09:51:36;;;;;;;5.50;1.70;;;20.10;77.40;;;;;;5029325;28;20493;-68
2021/08/23 09:54:13;;;;;;;4.47;1.38;;;20.30;76.90;;;;;;5032500;28;20058;-69
2021/08/23 09:56:53;;;;;;;2.67;0.93;;;20.30;75.00;;;;;;5033232;28;20073;-69
2021/08/23 09:59:29;;;;;;;3.35;1.30;;;20.30;73.80;;;;;;5032817;28;20057;-69
2021/08/23 10:02:02;;;;;;;2.45;1.40;;;20.30;72.50;;;;;;5033290;28;20045;-68
2021/08/23 10:04:29;;;;;;;3.60;1.20;;;20.20;72.70;;;;;;5032968;28;20056;-69
2021/08/23 10:06:56;;;;;;;3.22;1.42;;;20.10;71.90;;;;;;5032232;28;20056;-69
2021/08/23 10:09:27;;;;;;;4.60;1.30;;;20.10;71.30;;;;;;5033307;28;20438;-69
2021/08/23 10:11:55;;;;;;;3.28;1.15;;;20.10;72.20;;;;;;5032898;28;20419;-70
2021/08/23 10:14:22;;;;;;;4.07;1.45;;;20.10;71.70;;;;;;5032648;28;20430;-72
2021/08/23 10:16:49;;;;;;;3.05;1.13;;;20.10;72.30;;;;;;5033238;28;20049;-72
2021/08/23 10:19:18;;;;;;;5.70;1.52;;;20.10;71.10;;;;;;5031088;28;20382;-69
2021/08/23 10:21:46;;;;;;;4.25;1.38;;;20.10;70.70;;;;;;5032646;28;20145;-69
2021/08/23 10:24:41;;;;;;;4.53;1.77;;;20.10;70.30;;;;;;5032794;28;20119;-70
2021/08/23 10:27:21;;;;;;;4.47;1.33;;;20.10;68.70;;;;;;5031517;28;20371;-70
2021/08/23 10:29:48;;;;;;;4.05;1.67;;;20.10;66.70;;;;;;5032970;28;20056;-71
2021/08/23 10:32:14;;;;;;;2.45;1.38;;;20.20;66.00;;;;;;5032958;28;20454;-71
2021/08/23 10:34:40;;;;;;;2.35;1.58;;;20.10;65.70;;;;;;5031867;28;20041;-71
2021/08/23 10:37:21;;;;;;;3.58;1.77;;;20.20;65.60;;;;;;5032668;28;20049;-71
2021/08/23 10:40:01;;;;;;;2.10;1.20;;;20.20;65.90;;;;;;5032232;28;20049;-71
2021/08/23 10:42:37;;;;;;;3.75;1.73;;;20.30;66.90;;;;;;5032230;28;20296;-71
2021/08/23 10:45:15;;;;;;;3.50;1.58;;;20.40;67.00;;;;;;5032838;28;20194;-71
2021/08/23 10:47:42;;;;;;;4.28;1.52;;;20.40;65.40;;;;;;5031309;28;20049;-70
2021/08/23 10:50:19;;;;;;;5.45;2.42;;;20.40;64.60;;;;;;5032777;28;20053;-70
2021/08/23 10:52:45;;;;;;;4.18;2.00;;;20.50;64.60;;;;;;5032597;28;20100;-70
2021/08/23 10:55:26;;;;;;;4.10;1.70;;;20.50;64.40;;;;;;5031581;28;20087;-70
2021/08/23 10:58:10;;;;;;;3.08;1.60;;;20.50;63.40;;;;;;5032607;28;20057;-70
2021/08/23 11:00:38;;;;;;;2.40;1.40;;;20.60;63.90;;;;;;5032057;28;20049;-70
2021/08/23 11:03:04;;;;;;;3.35;1.30;;;20.70;63.20;;;;;;5031317;28;20053;-70
2021/08/23 11:05:33;;;;;;;4.80;1.80;;;20.80;63.90;;;;;;5032664;28;20068;-70
2021/08/23 11:08:03;;;;;;;3.00;1.58;;;20.90;64.20;;;;;;5032018;28;20128;-70
2021/08/23 11:10:32;;;;;;;4.25;1.50;;;21.00;65.30;;;;;;5031458;28;20065;-70
2021/08/23 11:13:08;;;;;;;2.78;1.38;;;21.10;64.70;;;;;;5032204;28;20076;-70
2021/08/23 11:15:35;;;;;;;5.68;1.77;;;21.20;63.70;;;;;;5031427;28;20129;-70
2021/08/23 11:18:05;;;;;;;4.30;1.75;;;21.30;63.40;;;;;;5031723;28;20049;-70
2021/08/23 11:20:36;;;;;;;4.03;1.50;;;21.40;62.60;;;;;;5031998;28;20554;-71
2021/08/23 11:23:01;;;;;;;;;;;21.40;62.60;;;;;;5032140;28;20425;-70
2021/08/23 11:25:37;;;;;;;5.50;1.25;;;21.50;64.50;;;;;;5031779;28;19925;-70
2021/08/23 11:28:27;;;;;;;3.10;1.13;;;21.60;61.70;;;;;;5032084;28;20053;-70
2021/08/23 11:30:56;;;;;;;2.47;1.80;;;21.60;61.00;;;;;;5030826;28;20475;-70
2021/08/23 11:33:31;;;;;;;3.88;1.40;;;21.70;61.70;;;;;;5031906;28;20117;-70
2021/08/23 11:35:58;;;;;;;2.60;1.30;;;21.70;62.70;;;;;;5031550;28;20060;-70
2021/08/23 11:38:33;;;;;;;3.35;1.30;;;21.80;62.00;;;;;;5031043;28;20053;-69
2021/08/23 11:40:59;;;;;;;6.03;1.55;;;21.90;61.90;;;;;;5031535;28;20132;-70
2021/08/23 11:43:30;;;;;;;2.63;1.17;;;22.00;62.50;;;;;;5031688;28;20076;-69
2021/08/23 11:45:57;;;;;;;4.03;1.40;;;22.10;61.20;;;;;;5030914;28;20042;-70
2021/08/23 11:48:23;;;;;;;4.32;1.52;;;22.10;61.70;;;;;;5031850;28;20124;-70
2021/08/23 11:50:49;;;;;;;3.75;1.25;;;22.20;61.50;;;;;;5030960;28;20109;-70
2021/08/23 11:53:16;;;;;;;3.25;1.30;;;22.20;62.00;;;;;;5031697;28;20456;-70
2021/08/23 11:55:46;;;;;;;3.33;1.40;;;22.30;61.70;;;;;;5031299;28;20046;-70
2021/08/23 11:58:14;;;;;;;3.47;1.73;;;22.20;61.60;;;;;;5030578;28;20045;-70
2021/08/23 12:00:42;;;;;;;4.32;1.30;;;22.30;62.40;;;;;;5031048;28;20111;-73
2021/08/23 12:03:15;;;;;;;4.28;1.65;;;22.40;62.00;;;;;;5031782;28;20089;-70
2021/08/23 12:05:47;;;;;;;4.05;1.48;;;22.40;61.80;;;;;;5030443;28;20151;-70
2021/08/23 12:08:34;;;;;;;5.22;1.60;;;22.40;62.00;;;;;;5031746;28;20049;-69
2021/08/23 12:11:08;;;;;;;3.45;1.40;;;22.40;61.30;;;;;;5031695;28;20057;-71
2021/08/23 12:13:39;;;;;;;2.70;1.50;;;22.40;62.30;;;;;;5030763;28;20505;-70
2021/08/23 12:16:10;;;;;;;5.03;1.58;;;22.50;62.70;;;;;;5031497;28;20090;-70
2021/08/23 12:18:42;;;;;;;6.22;1.75;;;22.50;62.60;;;;;;5031416;28;20581;-70
2021/08/23 12:21:25;;;;;;;2.28;1.50;;;22.60;62.10;;;;;;5031651;28;20057;-71
2021/08/23 12:23:55;;;;;;;3.80;1.08;;;22.60;61.70;;;;;;5031500;28;20049;-71
2021/08/23 12:26:36;;;;;;;3.47;1.48;;;22.60;61.40;;;;;;5030844;28;20049;-70
2021/08/23 12:29:17;;;;;;;2.20;1.30;;;22.70;62.10;;;;;;5033452;28;20198;-71
2021/08/23 12:31:49;;;;;;;2.63;1.60;;;22.70;62.80;;;;;;5034890;28;20061;-71
2021/08/23 12:34:18;;;;;;;3.03;1.27;;;22.80;62.80;;;;;;5034640;28;20061;-70
2021/08/23 12:36:45;;;;;;;3.78;1.30;;;22.80;63.10;;;;;;5035007;28;20076;-70
2021/08/23 12:39:11;;;;;;;2.10;1.00;;;22.90;62.20;;;;;;5035018;28;20049;-70
2021/08/23 12:41:45;;;;;;;2.28;1.10;;;22.90;62.20;;;;;;5034230;28;20053;-70
2021/08/23 12:44:12;;;;;;;4.47;2.42;;;22.90;62.20;;;;;;5034815;28;20469;-71